createdAt,value
2023-05-19T00:01:44.948Z,10.94
2023-05-19T00:04:47.242Z,10.95
2023-05-19T00:07:51.425Z,10.95
2023-05-19T00:10:53.571Z,10.91
2023-05-19T00:13:56.408Z,10.86
2023-05-19T00:17:00.061Z,10.83
2023-05-19T00:20:01.922Z,10.78
2023-05-19T00:23:03.621Z,10.80
2023-05-19T00:26:05.356Z,10.81
2023-05-19T00:29:07.121Z,10.75
2023-05-19T00:32:10.215Z,10.82
2023-05-19T00:35:12.357Z,10.82
2023-05-19T00:38:14.062Z,10.83
2023-05-19T00:41:15.793Z,10.82
2023-05-19T00:44:19.737Z,10.80
2023-05-19T00:47:22.773Z,10.79
2023-05-19T00:50:24.470Z,10.79
2023-05-19T00:53:26.180Z,10.69
2023-05-19T00:56:28.240Z,10.69
2023-05-19T00:59:30.232Z,10.76
2023-05-19T01:02:33.458Z,10.75
2023-05-19T01:05:35.933Z,10.67
2023-05-19T01:08:38.466Z,10.57
2023-05-19T01:11:40.153Z,10.53
2023-05-19T01:14:42.424Z,10.57
2023-05-19T01:17:53.448Z,10.54
2023-05-19T01:21:23.247Z,10.49
2023-05-19T01:24:45.213Z,10.55
2023-05-19T01:28:10.320Z,10.53
2023-05-19T01:31:15.406Z,10.51
2023-05-19T01:34:19.533Z,10.46
2023-05-19T01:37:21.652Z,10.43
2023-05-19T01:40:24.648Z,10.46
2023-05-19T01:43:27.332Z,10.47
2023-05-19T01:46:30.434Z,10.48
2023-05-19T01:49:32.124Z,10.47
2023-05-19T01:52:33.950Z,10.36
2023-05-19T01:55:36.762Z,10.46
2023-05-19T01:58:45.159Z,10.47
2023-05-19T02:01:53.279Z,10.46
2023-05-19T02:05:00.005Z,10.50
2023-05-19T02:08:11.441Z,10.48
2023-05-19T02:11:19.586Z,10.60
2023-05-19T02:14:29.019Z,10.60
2023-05-19T02:17:35.939Z,10.73
2023-05-19T02:20:37.794Z,10.99
2023-05-19T02:23:39.911Z,10.72
2023-05-19T02:26:41.543Z,10.64
2023-05-19T02:29:43.255Z,10.52
2023-05-19T02:32:46.347Z,10.57
2023-05-19T02:35:48.009Z,10.56
2023-05-19T02:38:49.697Z,10.51
2023-05-19T02:41:51.618Z,10.59
2023-05-19T02:44:54.735Z,10.60
2023-05-19T02:47:59.175Z,10.48
2023-05-19T02:51:00.820Z,10.42
2023-05-19T02:54:02.507Z,10.45
2023-05-19T02:57:04.594Z,10.44
2023-05-19T03:00:07.719Z,10.44
2023-05-19T03:03:10.905Z,10.41
2023-05-19T03:06:12.988Z,10.43
2023-05-19T03:09:14.660Z,10.47
2023-05-19T03:12:16.333Z,10.47
2023-05-19T03:15:18.011Z,10.48
2023-05-19T03:18:21.039Z,10.62
2023-05-19T03:21:23.107Z,10.55
2023-05-19T03:24:29.710Z,10.58
2023-05-19T03:27:31.368Z,10.57
2023-05-19T03:30:33.293Z,10.52
2023-05-19T03:33:36.870Z,10.49
2023-05-19T03:36:38.603Z,10.54
2023-05-19T03:39:40.309Z,10.72
2023-05-19T03:42:41.940Z,10.94
2023-05-19T03:45:43.705Z,10.90
2023-05-19T03:48:46.727Z,10.86
2023-05-19T03:51:48.380Z,11.09
2023-05-19T03:54:50.056Z,10.79
2023-05-19T03:57:51.786Z,10.79
2023-05-19T04:00:53.436Z,10.82
2023-05-19T04:03:56.586Z,11.02
2023-05-19T04:06:58.374Z,11.00
2023-05-19T04:10:00.261Z,11.04
2023-05-19T04:13:02.260Z,11.11
2023-05-19T04:16:04.583Z,11.22
2023-05-19T04:19:07.975Z,11.19
2023-05-19T04:22:09.621Z,11.24
2023-05-19T04:25:11.233Z,11.17
2023-05-19T04:28:12.908Z,11.26
2023-05-19T04:31:14.886Z,11.32
2023-05-19T04:34:17.988Z,11.32
2023-05-19T04:37:19.822Z,11.34
2023-05-19T04:40:21.567Z,11.37
2023-05-19T04:43:23.219Z,11.47
2023-05-19T04:46:24.906Z,11.39
2023-05-19T04:49:27.970Z,11.54
2023-05-19T04:52:29.697Z,11.39
2023-05-19T04:55:31.437Z,11.52
2023-05-19T04:58:33.150Z,11.72
2023-05-19T05:01:34.864Z,11.72
2023-05-19T05:04:38.165Z,11.77
2023-05-19T05:07:39.841Z,11.87
2023-05-19T05:10:41.671Z,12.07
2023-05-19T05:13:44.060Z,12.06
2023-05-19T05:16:46.462Z,12.16
2023-05-19T05:19:50.348Z,12.24
2023-05-19T05:22:52.509Z,12.38
2023-05-19T05:25:54.683Z,12.45
2023-05-19T05:28:56.391Z,12.63
2023-05-19T05:31:58.349Z,12.68
2023-05-19T05:35:01.552Z,12.85
2023-05-19T05:38:03.744Z,13.08
2023-05-19T05:41:05.480Z,13.25
2023-05-19T05:44:07.531Z,13.49
2023-05-19T05:47:09.962Z,13.69
2023-05-19T05:50:14.341Z,13.75
2023-05-19T05:53:19.086Z,13.61
2023-05-19T05:56:21.693Z,13.74
2023-05-19T05:59:23.406Z,13.78
2023-05-19T06:02:25.527Z,13.73
2023-05-19T06:05:28.976Z,13.79
2023-05-19T06:08:30.701Z,13.86
2023-05-19T06:11:32.723Z,13.86
2023-05-19T06:14:34.631Z,13.92
2023-05-19T06:17:36.609Z,14.05
2023-05-19T06:20:39.730Z,14.17
2023-05-19T06:23:41.434Z,14.27
2023-05-19T06:26:43.180Z,14.27
2023-05-19T06:29:44.893Z,14.36
2023-05-19T06:32:46.598Z,14.63
2023-05-19T06:35:49.701Z,14.57
2023-05-19T06:38:51.436Z,14.49
2023-05-19T06:41:53.399Z,14.61
2023-05-19T06:44:55.820Z,14.71
2023-05-19T06:47:57.600Z,14.66
2023-05-19T06:51:00.691Z,14.76
2023-05-19T06:54:02.421Z,14.91
2023-05-19T06:57:04.321Z,15.11
2023-05-19T07:00:07.727Z,15.19
2023-05-19T07:03:09.348Z,15.24
2023-05-19T07:06:12.583Z,15.43
2023-05-19T07:09:14.276Z,15.45
2023-05-19T07:12:16.428Z,15.70
2023-05-19T07:15:18.326Z,15.80
2023-05-19T07:18:20.039Z,15.82
2023-05-19T07:21:23.387Z,15.73
2023-05-19T07:24:24.848Z,15.63
2023-05-19T07:27:26.728Z,15.75
2023-05-19T07:30:28.928Z,15.87
2023-05-19T07:33:30.834Z,15.98
2023-05-19T07:36:33.860Z,16.10
2023-05-19T07:39:36.223Z,16.19
2023-05-19T07:42:37.890Z,16.36
2023-05-19T07:45:39.909Z,16.25
2023-05-19T07:48:41.580Z,16.45
2023-05-19T07:51:44.632Z,16.35
2023-05-19T07:54:46.591Z,16.47
2023-05-19T07:57:48.342Z,16.62
2023-05-19T08:00:50.006Z,16.88
2023-05-19T08:03:51.697Z,16.86
2023-05-19T08:06:54.764Z,16.92
2023-05-19T08:09:56.418Z,16.99
2023-05-19T08:12:58.218Z,17.13
2023-05-19T08:16:00.353Z,17.19
2023-05-19T08:19:02.200Z,16.95
2023-05-19T08:22:05.316Z,17.04
2023-05-19T08:25:07.246Z,17.20
2023-05-19T08:28:09.058Z,17.25
2023-05-19T08:31:10.959Z,17.34
2023-05-19T08:34:12.700Z,17.27
2023-05-19T08:37:15.806Z,17.35
2023-05-19T08:40:18.521Z,17.39
2023-05-19T08:43:20.498Z,17.38
2023-05-19T08:46:24.936Z,17.50
2023-05-19T08:49:27.715Z,17.68
2023-05-19T08:52:35.642Z,17.90
2023-05-19T08:55:43.988Z,17.82
2023-05-19T08:58:47.214Z,17.86
2023-05-19T09:01:48.794Z,17.99
2023-05-19T09:04:50.403Z,17.85
2023-05-19T09:07:53.596Z,18.06
2023-05-19T09:10:55.742Z,18.31
2023-05-19T09:13:57.733Z,18.52
2023-05-19T09:16:59.546Z,18.83
2023-05-19T09:20:01.746Z,19.07
2023-05-19T09:23:05.653Z,19.06
2023-05-19T09:26:07.691Z,18.99
2023-05-19T09:29:13.825Z,18.72
2023-05-19T09:32:24.855Z,18.87
2023-05-19T09:35:26.718Z,19.04
2023-05-19T09:38:29.828Z,19.15
2023-05-19T09:41:31.614Z,19.24
2023-05-19T09:44:35.310Z,19.20
2023-05-19T09:47:37.695Z,19.14
2023-05-19T09:50:39.865Z,19.09
2023-05-19T09:53:46.883Z,19.29
2023-05-19T09:56:52.188Z,19.42
2023-05-19T09:59:55.560Z,19.64
2023-05-19T10:02:58.525Z,19.66
2023-05-19T10:06:01.156Z,19.70
2023-05-19T10:09:04.381Z,19.21
2023-05-19T10:12:06.819Z,18.99
2023-05-19T10:15:10.850Z,19.13
2023-05-19T10:18:15.819Z,19.22
2023-05-19T10:21:18.302Z,19.32
2023-05-19T10:24:21.753Z,19.42
2023-05-19T10:27:23.738Z,19.43
2023-05-19T10:30:29.326Z,19.52
2023-05-19T10:33:47.198Z,19.55
2023-05-19T10:39:59.987Z,19.65
2023-05-19T10:43:18.067Z,19.84
2023-05-19T10:46:24.025Z,20.02
2023-05-19T10:49:26.289Z,20.20
2023-05-19T10:52:30.096Z,20.26
2023-05-19T10:55:51.031Z,20.12
2023-05-19T10:58:52.664Z,20.00
2023-05-19T11:01:54.354Z,20.11
2023-05-19T11:05:07.490Z,20.20
2023-05-19T11:08:09.356Z,20.22
2023-05-19T11:11:17.462Z,20.11
2023-05-19T11:14:21.301Z,20.29
2023-05-19T11:17:25.191Z,20.31
2023-05-19T11:20:28.846Z,20.42
2023-05-19T11:23:35.440Z,20.57
2023-05-19T11:26:42.408Z,20.64
2023-05-19T11:29:44.171Z,20.72
2023-05-19T11:32:48.200Z,20.88
2023-05-19T11:35:51.030Z,20.93
2023-05-19T11:38:53.253Z,20.92
2023-05-19T11:41:56.934Z,20.95
2023-05-19T11:44:58.866Z,20.98
2023-05-19T11:48:03.014Z,21.03
2023-05-19T11:51:06.679Z,21.29
2023-05-19T11:54:08.395Z,21.45
2023-05-19T11:57:11.384Z,21.57
2023-05-19T12:00:13.936Z,21.58
2023-05-19T12:03:16.197Z,21.54
2023-05-19T12:06:18.116Z,21.65
2023-05-19T12:09:23.013Z,21.71
2023-05-19T12:12:26.040Z,21.88
2023-05-19T12:15:27.841Z,21.90
2023-05-19T12:18:30.354Z,21.88
2023-05-19T12:21:34.031Z,21.73
2023-05-19T12:24:37.657Z,21.63
2023-05-19T12:27:43.293Z,21.56
2023-05-19T12:30:48.043Z,21.65
2023-05-19T12:33:50.204Z,21.76
2023-05-19T12:36:51.872Z,21.85
2023-05-19T12:39:55.455Z,22.06
2023-05-19T12:42:58.471Z,22.22
2023-05-19T12:46:08.935Z,22.41
2023-05-19T12:49:10.653Z,22.51
2023-05-19T12:52:13.720Z,22.59
2023-05-19T12:55:15.594Z,22.95
2023-05-19T12:58:19.132Z,22.98
2023-05-19T13:01:22.501Z,22.81
2023-05-19T13:04:24.499Z,22.89
2023-05-19T13:07:26.251Z,23.03
2023-05-19T13:10:28.772Z,23.15
2023-05-19T13:13:31.806Z,23.12
2023-05-19T13:16:33.340Z,22.94
2023-05-19T13:19:35.405Z,22.87
2023-05-19T13:22:37.106Z,22.63
2023-05-19T13:25:39.354Z,22.57
2023-05-19T13:28:42.354Z,22.56
2023-05-19T13:31:43.881Z,22.52
2023-05-19T13:34:45.618Z,22.56
2023-05-19T13:37:47.317Z,22.64
2023-05-19T13:40:49.001Z,22.72
2023-05-19T13:43:52.147Z,22.75
2023-05-19T13:46:54.073Z,22.84
2023-05-19T13:49:55.927Z,22.80
2023-05-19T13:52:57.870Z,22.71
2023-05-19T13:56:00.757Z,22.60
2023-05-19T13:59:03.952Z,22.55
2023-05-19T14:02:06.426Z,22.53
2023-05-19T14:05:08.720Z,22.63
2023-05-19T14:08:10.394Z,22.79
2023-05-19T14:11:17.857Z,23.04
2023-05-19T14:14:21.240Z,23.18
2023-05-19T14:17:23.029Z,23.41
2023-05-19T14:20:25.878Z,23.34
2023-05-19T14:23:28.724Z,23.09
2023-05-19T14:26:30.411Z,23.20
2023-05-19T14:29:33.588Z,23.19
2023-05-19T14:32:35.526Z,23.22
2023-05-19T14:35:37.315Z,23.32
2023-05-19T14:38:38.977Z,23.39
2023-05-19T14:41:40.690Z,23.23
2023-05-19T14:44:44.011Z,23.28
2023-05-19T14:47:47.096Z,23.26
2023-05-19T14:50:49.555Z,22.98
2023-05-19T14:53:51.465Z,23.02
2023-05-19T14:56:53.130Z,22.87
2023-05-19T14:59:56.168Z,22.74
2023-05-19T15:02:57.902Z,22.70
2023-05-19T15:05:59.836Z,22.68
2023-05-19T15:09:01.702Z,22.65
2023-05-19T15:12:03.784Z,22.58
2023-05-19T15:15:08.422Z,22.62
2023-05-19T15:18:10.162Z,22.61
2023-05-19T15:21:12.088Z,22.60
2023-05-19T15:24:16.008Z,22.67
2023-05-19T15:27:18.010Z,22.71
2023-05-19T15:30:21.185Z,22.78
2023-05-19T15:33:22.826Z,22.79
2023-05-19T15:36:24.719Z,22.82
2023-05-19T15:39:26.335Z,22.84
2023-05-19T15:42:28.249Z,22.75
2023-05-19T15:45:31.537Z,22.66
2023-05-19T15:48:33.272Z,22.55
2023-05-19T15:51:35.100Z,22.62
2023-05-19T15:54:36.737Z,22.65
2023-05-19T15:57:38.409Z,22.59
2023-05-19T16:00:41.967Z,22.51
2023-05-19T16:03:44.434Z,22.48
2023-05-19T16:06:46.400Z,22.35
2023-05-19T16:09:48.034Z,22.23
2023-05-19T16:12:49.759Z,22.11
2023-05-19T16:15:52.966Z,22.07
2023-05-19T16:18:54.702Z,22.03
2023-05-19T16:21:56.374Z,21.97
2023-05-19T16:24:58.274Z,21.91
2023-05-19T16:27:59.976Z,21.84
2023-05-19T16:31:03.036Z,21.80
2023-05-19T16:34:04.726Z,21.75
2023-05-19T16:37:06.442Z,21.68
2023-05-19T16:40:09.017Z,21.60
2023-05-19T16:43:10.903Z,21.58
2023-05-19T16:46:13.943Z,21.48
2023-05-19T16:49:15.429Z,21.47
2023-05-19T16:52:17.127Z,21.34
2023-05-19T16:55:21.917Z,21.26
2023-05-19T16:58:23.606Z,21.17
2023-05-19T17:01:26.770Z,21.10
2023-05-19T17:04:30.654Z,21.00
2023-05-19T17:07:32.531Z,20.96
2023-05-19T17:10:34.548Z,20.88
2023-05-19T17:13:36.554Z,20.81
2023-05-19T17:16:39.941Z,20.71
2023-05-19T17:19:41.606Z,20.66
2023-05-19T17:22:43.698Z,20.58
2023-05-19T17:25:45.473Z,20.49
2023-05-19T17:28:47.181Z,20.41
2023-05-19T17:31:50.271Z,20.31
2023-05-19T17:34:51.764Z,20.21
2023-05-19T17:37:53.258Z,20.10
2023-05-19T17:40:57.668Z,19.93
2023-05-19T17:43:59.578Z,19.80
2023-05-19T17:47:02.830Z,19.68
2023-05-19T17:50:05.357Z,19.54
2023-05-19T17:53:07.547Z,19.41
2023-05-19T17:56:11.733Z,19.32
2023-05-19T17:59:13.692Z,19.21
2023-05-19T18:02:18.373Z,19.06
2023-05-19T18:05:21.295Z,18.96
2023-05-19T18:08:23.598Z,18.81
2023-05-19T18:11:25.805Z,18.68
2023-05-19T18:14:28.608Z,18.49
2023-05-19T18:17:31.780Z,18.34
2023-05-19T18:20:34.454Z,18.20
2023-05-19T18:23:36.402Z,18.10
2023-05-19T18:26:38.178Z,17.99
2023-05-19T18:29:39.924Z,17.86
2023-05-19T18:32:43.269Z,17.81
2023-05-19T18:35:46.314Z,17.72
2023-05-19T18:38:48.428Z,17.67
2023-05-19T18:41:50.324Z,17.59
2023-05-19T18:44:52.038Z,17.47
2023-05-19T18:47:55.146Z,17.43
2023-05-19T18:50:56.847Z,17.37
2023-05-19T18:53:58.629Z,17.31
2023-05-19T18:57:00.736Z,17.26
2023-05-19T19:00:02.411Z,17.24
2023-05-19T19:03:05.787Z,17.22
2023-05-19T19:06:07.864Z,17.25
2023-05-19T19:09:09.764Z,17.21
2023-05-19T19:12:11.456Z,17.18
2023-05-19T19:15:13.243Z,17.14
2023-05-19T19:18:16.293Z,17.12
2023-05-19T19:21:17.972Z,17.10
2023-05-19T19:24:19.973Z,17.10
2023-05-19T19:27:22.352Z,17.05
2023-05-19T19:30:24.105Z,17.12
2023-05-19T19:33:27.193Z,17.13
2023-05-19T19:36:28.969Z,17.11
2023-05-19T19:39:31.131Z,17.16
2023-05-19T19:42:32.896Z,17.18
2023-05-19T19:45:34.903Z,17.22
2023-05-19T19:48:38.134Z,17.27
2023-05-19T19:51:39.740Z,17.28
2023-05-19T19:54:41.442Z,17.28
2023-05-19T19:57:43.138Z,17.25
2023-05-19T20:00:45.062Z,17.27
2023-05-19T20:03:48.449Z,17.27
2023-05-19T20:06:50.480Z,17.28
2023-05-19T20:09:52.276Z,17.30
2023-05-19T20:12:53.941Z,17.31
2023-05-19T20:15:55.642Z,17.29
2023-05-19T20:18:59.071Z,17.25
2023-05-19T20:22:00.891Z,17.22
2023-05-19T20:25:02.526Z,17.09
2023-05-19T20:28:04.567Z,17.12
2023-05-19T20:31:06.529Z,17.13
2023-05-19T20:34:09.584Z,17.08
2023-05-19T20:37:11.542Z,17.12
2023-05-19T20:40:13.266Z,17.14
2023-05-19T20:43:15.184Z,17.13
2023-05-19T20:46:17.205Z,17.12
2023-05-19T20:49:20.369Z,17.08
2023-05-19T20:52:22.094Z,17.06
2023-05-19T20:55:23.757Z,17.05
2023-05-19T20:58:25.466Z,16.99
2023-05-19T21:01:27.269Z,17.02
2023-05-19T21:04:30.463Z,16.99
2023-05-19T21:07:31.939Z,16.97
2023-05-19T21:10:33.667Z,16.89
2023-05-19T21:13:35.492Z,16.78
2023-05-19T21:16:37.184Z,16.71
2023-05-19T21:19:40.215Z,16.58
2023-05-19T21:22:42.086Z,16.56
2023-05-19T21:25:45.417Z,16.51
2023-05-19T21:28:47.301Z,16.52
2023-05-19T21:31:49.176Z,16.52
2023-05-19T21:34:52.200Z,16.43
2023-05-19T21:37:53.887Z,16.52
2023-05-19T21:40:55.663Z,16.53
2023-05-19T21:43:57.308Z,16.48
2023-05-19T21:46:59.097Z,16.51
2023-05-19T21:50:02.371Z,16.56
2023-05-19T21:53:04.190Z,16.58
2023-05-19T21:56:06.004Z,16.65
2023-05-19T21:59:08.246Z,16.70
2023-05-19T22:02:09.993Z,16.74
2023-05-19T22:05:13.154Z,16.73
2023-05-19T22:08:15.187Z,16.85
2023-05-19T22:11:16.837Z,16.96
2023-05-19T22:14:18.568Z,17.01
2023-05-19T22:17:20.242Z,17.00
2023-05-19T22:20:23.305Z,16.97
2023-05-19T22:23:25.162Z,16.86
2023-05-19T22:26:26.863Z,16.86
2023-05-19T22:29:28.533Z,16.84
2023-05-19T22:32:30.471Z,16.71
2023-05-19T22:35:33.826Z,16.69
2023-05-19T22:38:35.767Z,16.59
2023-05-19T22:41:37.438Z,16.53
2023-05-19T22:44:39.324Z,16.45
2023-05-19T22:47:41.022Z,16.33
2023-05-19T22:50:44.091Z,16.22
2023-05-19T22:53:45.931Z,16.18
2023-05-19T22:56:47.866Z,16.13
2023-05-19T22:59:49.805Z,16.07
2023-05-19T23:02:51.622Z,16.10
2023-05-19T23:05:54.934Z,16.12
2023-05-19T23:09:00.760Z,16.17
2023-05-19T23:12:02.451Z,16.11
2023-05-19T23:15:04.944Z,16.09
2023-05-19T23:18:06.868Z,16.14
2023-05-19T23:21:09.976Z,16.12
2023-05-19T23:24:11.921Z,16.10
2023-05-19T23:27:13.616Z,16.11
2023-05-19T23:30:15.329Z,16.03
2023-05-19T23:33:17.209Z,16.00
2023-05-19T23:36:20.240Z,16.00
2023-05-19T23:39:22.152Z,15.98
2023-05-19T23:42:23.794Z,15.97
2023-05-19T23:45:25.804Z,15.95
2023-05-19T23:48:28.326Z,15.84
2023-05-19T23:51:31.678Z,15.89
2023-05-19T23:54:33.623Z,15.83
2023-05-19T23:57:35.571Z,15.80
